createdAt,value
2023-03-27T00:00:27.359Z,100.00
2023-03-27T00:03:32.202Z,100.00
2023-03-27T00:06:37.176Z,100.00
2023-03-27T00:09:44.394Z,100.00
2023-03-27T00:12:49.649Z,100.00
2023-03-27T00:15:56.050Z,100.00
2023-03-27T00:19:00.561Z,100.00
2023-03-27T00:22:05.317Z,100.00
2023-03-27T00:25:11.568Z,100.00
2023-03-27T00:28:18.479Z,100.00
2023-03-27T00:31:23.224Z,100.00
2023-03-27T00:34:29.003Z,100.00
2023-03-27T00:37:33.767Z,100.00
2023-03-27T00:40:39.696Z,100.00
2023-03-27T00:43:44.359Z,100.00
2023-03-27T00:46:49.574Z,100.00
2023-03-27T00:49:55.450Z,100.00
2023-03-27T00:53:07.670Z,100.00
2023-03-27T00:56:13.366Z,100.00
2023-03-27T00:59:23.148Z,100.00
2023-03-27T01:02:28.095Z,100.00
2023-03-27T01:05:34.062Z,100.00
2023-03-27T01:08:38.651Z,100.00
2023-03-27T01:12:01.281Z,100.00
2023-03-27T01:15:21.805Z,100.00
2023-03-27T01:18:56.832Z,100.00
2023-03-27T01:22:32.250Z,100.00
2023-03-27T01:26:35.564Z,100.00
2023-03-27T01:30:07.152Z,100.00
2023-03-27T01:33:32.838Z,100.00
2023-03-27T01:37:06.691Z,100.00
2023-03-27T01:40:41.525Z,100.00
2023-03-27T01:43:56.615Z,100.00
2023-03-27T01:47:09.645Z,100.00
2023-03-27T01:50:21.396Z,100.00
2023-03-27T01:53:37.125Z,100.00
2023-03-27T01:56:51.790Z,100.00
2023-03-27T02:00:18.846Z,100.00
2023-03-27T02:03:29.308Z,100.00
2023-03-27T02:06:45.171Z,100.00
2023-03-27T02:09:55.166Z,100.00
2023-03-27T02:13:07.285Z,100.00
2023-03-27T02:16:17.172Z,100.00
2023-03-27T02:19:30.122Z,100.00
2023-03-27T02:22:37.461Z,100.00
2023-03-27T02:25:46.519Z,100.00
2023-03-27T02:29:03.403Z,100.00
2023-03-27T02:32:28.815Z,100.00
2023-03-27T02:36:13.341Z,100.00
2023-03-27T02:39:38.548Z,100.00
2023-03-27T02:42:50.256Z,100.00
2023-03-27T02:46:03.207Z,100.00
2023-03-27T02:49:16.122Z,100.00
2023-03-27T02:52:24.938Z,100.00
2023-03-27T02:55:35.879Z,100.00
2023-03-27T02:58:54.066Z,100.00
2023-03-27T03:02:14.799Z,100.00
2023-03-27T03:05:32.273Z,100.00
2023-03-27T03:08:38.908Z,100.00
2023-03-27T03:11:51.858Z,100.00
2023-03-27T03:14:56.703Z,100.00
2023-03-27T03:18:01.557Z,100.00
2023-03-27T03:21:08.488Z,100.00
2023-03-27T03:24:13.233Z,100.00
2023-03-27T03:27:21.032Z,100.00
2023-03-27T03:30:33.556Z,100.00
2023-03-27T03:33:45.440Z,100.00
2023-03-27T03:36:50.387Z,100.00
2023-03-27T03:40:01.750Z,100.00
2023-03-27T03:43:08.888Z,100.00
2023-03-27T03:46:13.582Z,100.00
2023-03-27T03:49:18.551Z,100.00
2023-03-27T03:52:23.135Z,100.00
2023-03-27T03:55:27.756Z,100.00
2023-03-27T03:58:34.563Z,100.00
2023-03-27T04:01:42.157Z,100.00
2023-03-27T04:04:46.887Z,100.00
2023-03-27T04:07:52.626Z,100.00
2023-03-27T04:11:15.719Z,100.00
2023-03-27T04:14:32.546Z,100.00
2023-03-27T04:17:39.674Z,100.00
2023-03-27T04:20:50.383Z,100.00
2023-03-27T04:24:02.341Z,100.00
2023-03-27T04:27:21.124Z,100.00
2023-03-27T04:30:45.336Z,100.00
2023-03-27T04:34:09.252Z,100.00
2023-03-27T04:37:41.387Z,100.00
2023-03-27T04:40:56.502Z,100.00
2023-03-27T04:44:01.677Z,100.00
2023-03-27T04:47:09.033Z,100.00
2023-03-27T04:50:16.718Z,100.00
2023-03-27T04:53:23.508Z,100.00
2023-03-27T04:56:30.681Z,100.00
2023-03-27T04:59:36.994Z,100.00
2023-03-27T05:03:01.129Z,100.00
2023-03-27T05:06:17.789Z,100.00
2023-03-27T05:09:23.470Z,100.00
2023-03-27T05:12:28.249Z,100.00
2023-03-27T05:15:38.994Z,100.00
2023-03-27T05:18:45.481Z,100.00
2023-03-27T05:21:50.049Z,100.00
2023-03-27T05:24:54.540Z,100.00
2023-03-27T05:28:00.452Z,100.00
2023-03-27T05:31:10.592Z,100.00
2023-03-27T05:34:27.098Z,100.00
2023-03-27T05:37:33.686Z,100.00
2023-03-27T05:41:01.983Z,100.00
2023-03-27T05:44:08.336Z,100.00
2023-03-27T05:47:16.862Z,100.00
2023-03-27T05:50:25.315Z,100.00
2023-03-27T05:53:31.055Z,100.00
2023-03-27T05:56:53.323Z,100.00
2023-03-27T05:59:58.023Z,100.00
2023-03-27T06:03:04.394Z,100.00
2023-03-27T06:06:27.602Z,100.00
2023-03-27T06:09:36.373Z,100.00
2023-03-27T06:13:06.582Z,100.00
2023-03-27T06:16:20.888Z,100.00
2023-03-27T06:19:40.914Z,100.00
2023-03-27T06:22:46.609Z,100.00
2023-03-27T06:25:53.088Z,100.00
2023-03-27T06:29:01.227Z,100.00
2023-03-27T06:32:13.783Z,100.00
2023-03-27T06:35:27.669Z,100.00
2023-03-27T06:38:37.246Z,100.00
2023-03-27T06:41:43.261Z,100.00
2023-03-27T06:45:11.711Z,100.00
2023-03-27T06:48:52.990Z,100.00
2023-03-27T06:51:57.672Z,100.00
2023-03-27T06:55:04.024Z,100.00
2023-03-27T06:58:13.263Z,100.00
2023-03-27T07:01:18.368Z,100.00
2023-03-27T07:04:42.902Z,100.00
2023-03-27T07:07:58.287Z,100.00
2023-03-27T07:11:11.659Z,100.00
2023-03-27T07:14:23.534Z,100.00
2023-03-27T07:17:38.270Z,100.00
2023-03-27T07:20:51.108Z,100.00
2023-03-27T07:23:59.614Z,100.00
2023-03-27T07:27:12.335Z,100.00
2023-03-27T07:30:18.908Z,100.00
2023-03-27T07:33:23.566Z,100.00
2023-03-27T07:36:28.850Z,100.00
2023-03-27T07:39:42.704Z,100.00
2023-03-27T07:42:48.365Z,100.00
2023-03-27T07:45:58.057Z,100.00
2023-03-27T07:49:04.877Z,100.00
2023-03-27T07:52:09.592Z,100.00
2023-03-27T07:55:23.024Z,100.00
2023-03-27T07:58:42.903Z,100.00
2023-03-27T08:01:50.485Z,100.00
2023-03-27T08:04:56.069Z,100.00
2023-03-27T08:08:01.401Z,100.00
2023-03-27T08:11:30.098Z,100.00
2023-03-27T08:14:35.541Z,100.00
2023-03-27T08:17:53.797Z,100.00
2023-03-27T08:21:03.299Z,100.00
2023-03-27T08:24:09.061Z,100.00
2023-03-27T08:27:36.662Z,100.00
2023-03-27T08:30:41.887Z,100.00
2023-03-27T08:33:47.073Z,100.00
2023-03-27T08:36:59.078Z,100.00
2023-03-27T08:40:25.946Z,100.00
2023-03-27T08:43:44.738Z,100.00
2023-03-27T08:46:56.062Z,100.00
2023-03-27T08:50:05.761Z,100.00
2023-03-27T08:54:12.456Z,100.00
2023-03-27T08:57:23.001Z,100.00
2023-03-27T09:00:39.482Z,100.00
2023-03-27T09:04:05.074Z,98.70
2023-03-27T09:07:21.037Z,100.00
2023-03-27T09:10:49.532Z,89.89
2023-03-27T09:14:28.197Z,89.92
2023-03-27T09:17:48.149Z,79.35
2023-03-27T09:21:05.700Z,82.81
2023-03-27T09:24:32.915Z,87.95
2023-03-27T09:28:21.000Z,95.04
2023-03-27T09:31:50.286Z,96.20
2023-03-27T09:34:55.695Z,99.41
2023-03-27T09:38:04.023Z,98.65
2023-03-27T09:41:28.676Z,95.69
2023-03-27T09:44:40.368Z,100.00
2023-03-27T09:47:51.438Z,100.00
2023-03-27T09:50:56.597Z,100.00
2023-03-27T09:54:23.403Z,97.04
2023-03-27T09:57:32.172Z,90.65
2023-03-27T10:00:36.980Z,91.72
2023-03-27T10:03:48.999Z,88.00
2023-03-27T10:07:08.353Z,85.82
2023-03-27T10:10:56.340Z,82.01
2023-03-27T10:14:47.318Z,78.15
2023-03-27T10:17:59.113Z,80.77
2023-03-27T10:21:10.806Z,81.47
2023-03-27T10:24:17.209Z,80.17
2023-03-27T10:27:36.379Z,89.30
2023-03-27T10:31:33.825Z,93.49
2023-03-27T10:34:57.970Z,100.00
2023-03-27T10:38:22.471Z,96.96
2023-03-27T10:41:37.770Z,97.03
2023-03-27T10:44:46.717Z,92.39
2023-03-27T10:47:55.603Z,84.98
2023-03-27T10:51:06.000Z,89.52
2023-03-27T10:55:05.184Z,81.07
2023-03-27T10:58:35.615Z,85.43
2023-03-27T11:01:47.221Z,80.12
2023-03-27T11:04:58.943Z,84.63
2023-03-27T11:08:29.045Z,78.03
2023-03-27T11:11:41.345Z,80.13
2023-03-27T11:15:26.214Z,80.13
2023-03-27T11:18:43.102Z,82.83
2023-03-27T11:21:53.515Z,74.95
2023-03-27T11:25:12.049Z,76.23
2023-03-27T11:28:34.939Z,68.96
2023-03-27T11:31:52.125Z,64.66
2023-03-27T11:35:17.522Z,71.02
2023-03-27T11:38:51.452Z,61.50
2023-03-27T11:41:58.977Z,62.31
2023-03-27T11:45:07.275Z,55.64
2023-03-27T11:48:50.844Z,57.61
2023-03-27T11:52:17.169Z,56.54
2023-03-27T11:55:39.254Z,57.57
2023-03-27T11:58:52.902Z,58.01
2023-03-27T12:02:15.740Z,60.63
2023-03-27T12:05:43.373Z,65.34
2023-03-27T12:08:58.396Z,61.65
2023-03-27T12:12:27.194Z,59.57
2023-03-27T12:15:41.706Z,59.10
2023-03-27T12:19:34.241Z,56.84
2023-03-27T12:23:11.871Z,53.48
2023-03-27T12:26:49.933Z,48.18
2023-03-27T12:30:44.249Z,49.51
2023-03-27T12:34:02.216Z,49.66
2023-03-27T12:37:10.781Z,50.26
2023-03-27T12:40:35.030Z,50.55
2023-03-27T12:43:47.512Z,54.52
2023-03-27T12:47:21.471Z,54.23
2023-03-27T12:50:34.012Z,49.84
2023-03-27T12:53:38.878Z,49.35
2023-03-27T12:57:18.048Z,50.67
2023-03-27T13:00:25.667Z,48.22
2023-03-27T13:03:42.688Z,46.34
2023-03-27T13:07:21.555Z,47.10
2023-03-27T13:11:14.414Z,43.27
2023-03-27T13:15:06.945Z,45.49
2023-03-27T13:18:38.865Z,48.64
2023-03-27T13:21:51.217Z,52.72
2023-03-27T13:25:15.836Z,50.33
2023-03-27T13:28:36.098Z,47.58
2023-03-27T13:31:49.660Z,47.07
2023-03-27T13:35:21.026Z,46.75
2023-03-27T13:38:49.059Z,49.86
2023-03-27T13:42:02.365Z,49.06
2023-03-27T13:45:23.174Z,48.85
2023-03-27T13:49:07.386Z,47.32
2023-03-27T13:52:48.865Z,46.17
2023-03-27T13:56:47.615Z,45.84
2023-03-27T14:00:20.813Z,48.13
2023-03-27T14:03:54.468Z,45.96
2023-03-27T14:07:01.876Z,47.80
2023-03-27T14:10:27.247Z,46.24
2023-03-27T14:14:01.644Z,48.19
2023-03-27T14:17:31.649Z,48.09
2023-03-27T14:20:44.601Z,48.88
2023-03-27T14:24:00.300Z,46.41
2023-03-27T14:27:19.174Z,43.65
2023-03-27T14:30:26.338Z,43.30
2023-03-27T14:34:03.323Z,42.45
2023-03-27T14:37:38.988Z,44.52
2023-03-27T14:41:17.040Z,42.49
2023-03-27T14:44:33.104Z,40.48
2023-03-27T14:47:43.089Z,43.22
2023-03-27T14:50:57.943Z,40.67
2023-03-27T14:54:26.694Z,41.40
2023-03-27T14:57:35.396Z,42.68
2023-03-27T15:00:42.584Z,42.45
2023-03-27T15:03:51.584Z,42.18
2023-03-27T15:07:19.650Z,40.31
2023-03-27T15:10:32.981Z,43.51
2023-03-27T15:13:56.908Z,42.75
2023-03-27T15:17:14.818Z,43.97
2023-03-27T15:20:22.080Z,45.75
2023-03-27T15:23:36.701Z,49.11
2023-03-27T15:26:41.511Z,51.03
2023-03-27T15:29:53.618Z,52.76
2023-03-27T15:33:02.085Z,53.32
2023-03-27T15:36:22.482Z,50.81
2023-03-27T15:39:27.435Z,50.29
2023-03-27T15:42:48.159Z,48.42
2023-03-27T15:46:11.669Z,48.05
2023-03-27T15:49:22.582Z,48.88
2023-03-27T15:52:31.243Z,49.38
2023-03-27T15:55:44.241Z,49.81
2023-03-27T15:58:54.549Z,51.01
2023-03-27T16:02:11.386Z,50.92
2023-03-27T16:05:17.936Z,51.70
2023-03-27T16:08:38.283Z,52.48
2023-03-27T16:11:45.994Z,54.11
2023-03-27T16:14:54.873Z,54.55
2023-03-27T16:18:04.415Z,53.07
2023-03-27T16:21:13.523Z,50.97
2023-03-27T16:24:18.199Z,52.78
2023-03-27T16:27:27.171Z,49.91
2023-03-27T16:30:38.862Z,49.77
2023-03-27T16:33:45.701Z,47.74
2023-03-27T16:36:50.748Z,49.93
2023-03-27T16:39:55.443Z,59.49
2023-03-27T16:43:00.089Z,72.71
2023-03-27T16:46:05.504Z,75.34
2023-03-27T16:49:14.335Z,76.13
2023-03-27T16:52:18.904Z,74.78
2023-03-27T16:55:25.012Z,81.71
2023-03-27T16:58:29.727Z,76.04
2023-03-27T17:01:34.493Z,78.95
2023-03-27T17:04:40.408Z,80.10
2023-03-27T17:07:47.040Z,82.12
2023-03-27T17:10:51.752Z,83.89
2023-03-27T17:13:56.610Z,85.71
2023-03-27T17:17:01.304Z,81.46
2023-03-27T17:20:07.918Z,76.90
2023-03-27T17:23:12.599Z,74.01
2023-03-27T17:26:32.862Z,75.20
2023-03-27T17:29:37.504Z,76.89
2023-03-27T17:32:42.717Z,77.79
2023-03-27T17:35:47.404Z,79.18
2023-03-27T17:38:52.801Z,83.41
2023-03-27T17:41:57.478Z,85.11
2023-03-27T17:45:02.471Z,88.17
2023-03-27T17:48:11.045Z,92.75
2023-03-27T17:51:15.872Z,94.21
2023-03-27T17:54:20.642Z,95.39
2023-03-27T17:57:25.225Z,98.83
2023-03-27T18:00:30.353Z,98.44
2023-03-27T18:03:35.143Z,100.00
2023-03-27T18:06:39.739Z,99.91
2023-03-27T18:09:46.639Z,100.00
2023-03-27T18:12:51.377Z,99.97
2023-03-27T18:15:58.069Z,100.00
2023-03-27T18:19:02.964Z,100.00
2023-03-27T18:22:07.736Z,100.00
2023-03-27T18:25:12.361Z,100.00
2023-03-27T18:28:17.076Z,100.00
2023-03-27T18:31:21.703Z,100.00
2023-03-27T18:34:26.604Z,100.00
2023-03-27T18:37:31.495Z,100.00
2023-03-27T18:40:36.158Z,100.00
2023-03-27T18:43:40.788Z,100.00
2023-03-27T18:46:45.282Z,100.00
2023-03-27T18:49:49.909Z,100.00
2023-03-27T18:52:54.482Z,100.00
2023-03-27T18:55:59.934Z,100.00
2023-03-27T18:59:04.960Z,100.00
2023-03-27T19:02:09.917Z,100.00
2023-03-27T19:05:16.204Z,100.00
2023-03-27T19:08:21.919Z,100.00
2023-03-27T19:11:26.576Z,100.00
2023-03-27T19:14:50.204Z,100.00
2023-03-27T19:18:16.983Z,100.00
2023-03-27T19:21:27.667Z,100.00
2023-03-27T19:24:44.159Z,100.00
2023-03-27T19:27:48.998Z,100.00
2023-03-27T19:30:54.257Z,100.00
2023-03-27T19:33:58.976Z,100.00
2023-03-27T19:37:03.772Z,100.00
2023-03-27T19:40:09.474Z,100.00
2023-03-27T19:43:14.126Z,100.00
2023-03-27T19:46:19.007Z,100.00
2023-03-27T19:49:26.756Z,100.00
2023-03-27T19:53:08.289Z,100.00
2023-03-27T19:56:13.706Z,100.00
2023-03-27T19:59:28.198Z,100.00
2023-03-27T20:02:35.577Z,100.00
2023-03-27T20:05:40.648Z,100.00
2023-03-27T20:08:45.409Z,100.00
2023-03-27T20:11:53.392Z,100.00
2023-03-27T20:15:11.039Z,100.00
2023-03-27T20:18:20.027Z,100.00
2023-03-27T20:21:25.564Z,100.00
2023-03-27T20:24:30.507Z,100.00
2023-03-27T20:27:37.551Z,100.00
2023-03-27T20:30:42.204Z,100.00
2023-03-27T20:33:46.775Z,100.00
2023-03-27T20:36:55.528Z,100.00
2023-03-27T20:40:11.627Z,100.00
2023-03-27T20:43:17.106Z,100.00
2023-03-27T20:46:21.816Z,100.00
2023-03-27T20:52:35.914Z,100.00
2023-03-27T20:55:49.700Z,100.00
2023-03-27T20:59:01.751Z,100.00
2023-03-27T21:02:06.922Z,100.00
2023-03-27T21:05:11.646Z,100.00
2023-03-27T21:08:16.534Z,100.00
2023-03-27T21:11:21.218Z,100.00
2023-03-27T21:14:25.841Z,100.00
2023-03-27T21:17:30.354Z,100.00
2023-03-27T21:20:35.536Z,100.00
2023-03-27T21:23:40.608Z,100.00
2023-03-27T21:26:45.455Z,100.00
2023-03-27T21:29:50.126Z,100.00
2023-03-27T21:32:54.779Z,100.00
2023-03-27T21:35:59.633Z,100.00
2023-03-27T21:39:05.575Z,100.00
2023-03-27T21:42:10.428Z,100.00
2023-03-27T21:45:15.426Z,100.00
2023-03-27T21:48:20.031Z,100.00
2023-03-27T21:51:24.792Z,100.00
2023-03-27T21:54:29.321Z,100.00
2023-03-27T21:57:33.926Z,100.00
2023-03-27T22:00:38.611Z,100.00
2023-03-27T22:03:43.347Z,100.00
2023-03-27T22:06:48.112Z,100.00
2023-03-27T22:09:53.056Z,100.00
2023-03-27T22:12:57.646Z,100.00
2023-03-27T22:16:07.801Z,100.00
2023-03-27T22:19:12.394Z,100.00
2023-03-27T22:22:17.067Z,100.00
2023-03-27T22:25:21.855Z,100.00
2023-03-27T22:28:26.538Z,100.00
2023-03-27T22:31:31.913Z,100.00
2023-03-27T22:34:36.425Z,100.00
2023-03-27T22:37:41.028Z,100.00
2023-03-27T22:40:45.698Z,100.00
2023-03-27T22:43:50.211Z,100.00
2023-03-27T22:46:54.840Z,100.00
2023-03-27T22:50:02.591Z,100.00
2023-03-27T22:53:07.165Z,100.00
2023-03-27T22:56:11.804Z,100.00
2023-03-27T22:59:17.323Z,100.00
2023-03-27T23:02:22.288Z,100.00
2023-03-27T23:05:27.412Z,100.00
2023-03-27T23:08:32.096Z,100.00
2023-03-27T23:11:36.851Z,100.00
2023-03-27T23:14:41.487Z,100.00
2023-03-27T23:17:46.043Z,100.00
2023-03-27T23:20:59.150Z,100.00
2023-03-27T23:24:04.231Z,100.00
2023-03-27T23:27:08.738Z,100.00
2023-03-27T23:30:13.598Z,100.00
2023-03-27T23:33:18.065Z,100.00
2023-03-27T23:36:24.675Z,100.00
2023-03-27T23:39:29.259Z,100.00
2023-03-27T23:42:34.012Z,100.00
2023-03-27T23:45:38.699Z,100.00
2023-03-27T23:48:44.409Z,100.00
2023-03-27T23:51:48.948Z,100.00
2023-03-27T23:54:53.571Z,100.00
2023-03-27T23:57:58.090Z,100.00
